Time;durP1;ratioP1;P1;durP2;ratioP2;P2;SDS_P1;SDS_P2;PMS_P1;PMS_P2;Temp;Humidity;BMP_temperature;BMP_pressure;BME280_temperature;BME280_humidity;BME280_pressure;Samples;Min_cycle;Max_cycle;Signal;HPM_P1;HPM_P2
2022/04/11 00:00:30;;;;;;;;;;;;;;;23.55;62.36;96448.96;626990;226;64956;-59
2022/04/11 00:02:57;;;;;;;;;;;;;;;23.57;61.96;96457.51;627046;226;64878;-59
2022/04/11 00:05:25;;;;;;;;;;;;;;;23.55;61.73;96462.38;626976;226;66000;-59
2022/04/11 00:07:52;;;;;;;;;;;;;;;23.55;62.88;96477.67;627064;226;65605;-59
2022/04/11 00:10:20;;;;;;;;;;;;;;;23.55;62.90;96483.04;627059;226;64922;-59
2022/04/11 00:12:47;;;;;;;;;;;;;;;23.54;62.66;96490.27;627010;226;63044;-60
2022/04/11 00:15:15;;;;;;;;;;;;;;;23.54;62.79;96489.48;627013;226;62618;-59
2022/04/11 00:17:43;;;;;;;;;;;;;;;23.53;62.75;96494.05;627024;226;65269;-59
2022/04/11 00:20:11;;;;;;;;;;;;;;;23.53;63.03;96495.95;627045;226;65175;-59
2022/04/11 00:22:38;;;;;;;;;;;;;;;23.52;62.10;96503.20;627037;226;65072;-59
2022/04/11 00:25:06;;;;;;;;;;;;;;;23.52;62.59;96507.75;627021;226;64961;-59
2022/04/11 00:27:34;;;;;;;;;;;;;;;23.49;62.75;96509.96;627005;226;65592;-59
2022/04/11 00:30:01;;;;;;;;;;;;;;;23.50;63.89;96518.80;627015;226;65013;-59
2022/04/11 00:32:29;;;;;;;;;;;;;;;23.49;63.36;96518.00;627071;226;64930;-59
2022/04/11 00:34:56;;;;;;;;;;;;;;;23.47;63.49;96517.50;627035;226;65106;-59
2022/04/11 00:37:24;;;;;;;;;;;;;;;23.47;63.54;96522.08;627012;226;66259;-59
2022/04/11 00:39:51;;;;;;;;;;;;;;;23.47;63.49;96522.08;626462;226;64823;-59
2022/04/11 00:42:19;;;;;;;;;;;;;;;23.46;62.57;96534.70;624724;227;62891;-59
2022/04/11 00:44:46;;;;;;;;;;;;;;;23.46;63.40;96536.56;624767;227;65133;-59
2022/04/11 00:47:14;;;;;;;;;;;;;;;23.45;63.50;96540.34;624782;227;64739;-59
2022/04/11 00:49:41;;;;;;;;;;;;;;;23.46;63.44;96547.28;624750;227;65221;-59
2022/04/11 00:52:09;;;;;;;;;;;;;;;23.44;63.05;96550.28;624709;227;65554;-59
2022/04/11 00:54:36;;;;;;;;;;;;;;;23.44;63.61;96560.22;624676;227;65413;-59
2022/04/11 00:57:04;;;;;;;;;;;;;;;23.43;63.67;96559.41;624743;227;65138;-59
2022/04/11 00:59:32;;;;;;;;;;;;;;;23.43;64.27;96563.98;624766;227;65478;-59
2022/04/11 01:02:01;;;;;;;;;;;;;;;23.42;64.03;96568.55;624725;227;65129;-59
2022/04/11 01:04:29;;;;;;;;;;;;;;;23.42;63.31;96573.91;624726;227;62742;-60
2022/04/11 01:06:57;;;;;;;;;;;;;;;23.40;64.06;96560.00;624742;227;66307;-59
2022/04/11 01:09:25;;;;;;;;;;;;;;;23.39;62.47;96571.04;624767;227;65261;-59
2022/04/11 01:11:53;;;;;;;;;;;;;;;23.39;64.46;96574.52;624823;227;63018;-59
2022/04/11 01:14:21;;;;;;;;;;;;;;;23.38;62.72;96583.66;624767;227;65151;-59
2022/04/11 01:16:49;;;;;;;;;;;;;;;23.38;63.52;96586.34;624775;227;65148;-59
2022/04/11 01:19:17;;;;;;;;;;;;;;;23.37;63.78;96591.98;624727;227;63248;-59
2022/04/11 01:21:45;;;;;;;;;;;;;;;23.37;64.22;96597.34;624749;227;65685;-59
2022/04/11 01:24:13;;;;;;;;;;;;;;;23.36;63.28;96591.20;624810;227;65202;-59
2022/04/11 01:26:42;;;;;;;;;;;;;;;23.36;64.10;96604.61;624751;227;63240;-59
2022/04/11 01:29:11;;;;;;;;;;;;;;;23.36;63.22;96609.97;624758;227;65575;-59
2022/04/11 01:31:39;;;;;;;;;;;;;;;23.35;63.27;96604.89;624766;227;65227;-60
2022/04/11 01:34:06;;;;;;;;;;;;;;;23.36;63.01;96606.50;624724;224;63218;-59
2022/04/11 01:36:34;;;;;;;;;;;;;;;23.34;62.92;96605.98;624807;227;66147;-59
2022/04/11 01:39:04;;;;;;;;;;;;;;;23.34;63.49;96609.45;624840;225;43756;-59
2022/04/11 01:41:32;;;;;;;;;;;;;;;23.34;63.28;96616.71;626801;226;65562;-59
2022/04/11 01:43:59;;;;;;;;;;;;;;;23.34;63.41;96614.03;627022;226;62798;-59
2022/04/11 01:46:27;;;;;;;;;;;;;;;23.33;63.47;96613.23;627033;226;63182;-60
2022/04/11 01:48:56;;;;;;;;;;;;;;;23.32;62.64;96611.63;626922;225;44325;-59
2022/04/11 01:51:23;;;;;;;;;;;;;;;23.32;62.03;96613.52;627096;226;65374;-59
2022/04/11 01:53:51;;;;;;;;;;;;;;;23.32;62.96;96616.20;626986;226;62782;-59
2022/04/11 01:56:19;;;;;;;;;;;;;;;23.30;63.23;96624.56;627037;226;63304;-59
2022/04/11 01:58:46;;;;;;;;;;;;;;;23.30;62.51;96629.10;627004;226;66170;-59
2022/04/11 02:01:16;;;;;;;;;;;;;;;23.30;62.79;96631.78;627023;226;64976;-59
2022/04/11 02:03:44;;;;;;;;;;;;;;;23.29;63.61;96631.00;627085;226;62640;-59
2022/04/11 02:06:12;;;;;;;;;;;;;;;23.29;63.18;96641.72;627020;226;65568;-59
2022/04/11 02:08:40;;;;;;;;;;;;;;;23.29;63.05;96649.77;627004;226;63380;-59
2022/04/11 02:11:11;;;;;;;;;;;;;;;23.26;62.98;96648.47;627062;226;44028;-59
2022/04/11 02:13:39;;;;;;;;;;;;;;;23.27;63.04;96657.30;627027;226;62828;-59
2022/04/11 02:16:06;;;;;;;;;;;;;;;23.25;63.88;96654.14;627032;226;65378;-59
2022/04/11 02:18:34;;;;;;;;;;;;;;;23.26;63.46;96658.40;627067;226;65423;-59
2022/04/11 02:21:02;;;;;;;;;;;;;;;23.26;62.16;96666.44;627024;226;63175;-59
2022/04/11 02:23:30;;;;;;;;;;;;;;;23.26;63.38;96669.13;627040;226;65277;-59
2022/04/11 02:25:57;;;;;;;;;;;;;;;23.25;62.58;96671.02;627014;226;66323;-59
2022/04/11 02:28:25;;;;;;;;;;;;;;;23.25;63.02;96676.38;627000;226;64996;-59
2022/04/11 02:30:53;;;;;;;;;;;;;;;23.24;62.83;96679.34;627074;226;62754;-59
2022/04/11 02:33:20;;;;;;;;;;;;;;;23.24;62.31;96684.70;626986;226;65405;-59
2022/04/11 02:35:48;;;;;;;;;;;;;;;23.24;63.54;96695.42;627022;226;66446;-59
2022/04/11 02:38:16;;;;;;;;;;;;;;;23.24;63.25;96690.06;626981;226;62752;-59
2022/04/11 02:40:46;;;;;;;;;;;;;;;23.22;64.01;96693.05;626989;226;66202;-59
2022/04/11 02:43:15;;;;;;;;;;;;;;;23.22;63.26;96694.94;626876;225;46155;-59
2022/04/11 02:45:45;;;;;;;;;;;;;;;23.21;64.79;96707.52;626767;225;47738;-59
2022/04/11 02:48:14;;;;;;;;;;;;;;;23.20;64.13;96703.27;626989;226;62772;-59
2022/04/11 02:50:43;;;;;;;;;;;;;;;23.21;66.50;96712.09;626962;225;47326;-58
2022/04/11 02:53:13;;;;;;;;;;;;;;;23.19;65.17;96717.77;627033;225;43509;-59
2022/04/11 02:55:40;;;;;;;;;;;;;;;23.18;65.76;96724.20;627055;226;65249;-59
2022/04/11 02:58:08;;;;;;;;;;;;;;;23.17;65.29;96716.46;627039;226;62835;-59
2022/04/11 03:00:36;;;;;;;;;;;;;;;23.17;63.89;96725.30;626998;226;65012;-59
2022/04/11 03:03:04;;;;;;;;;;;;;;;23.18;65.49;96734.92;627048;226;65575;-59
2022/04/11 03:05:34;;;;;;;;;;;;;;;23.17;65.30;96730.66;627017;226;62931;-59
2022/04/11 03:08:02;;;;;;;;;;;;;;;23.16;65.03;96734.44;626876;225;66105;-59
2022/04/11 03:10:30;;;;;;;;;;;;;;;23.16;63.87;96747.02;627058;226;62745;-59
2022/04/11 03:12:59;;;;;;;;;;;;;;;23.16;63.41;96750.52;626998;225;43194;-59
2022/04/11 03:15:27;;;;;;;;;;;;;;;23.15;64.22;96756.16;627045;226;64960;-59
2022/04/11 03:17:55;;;;;;;;;;;;;;;23.14;63.63;96758.05;627014;226;63108;-60
2022/04/11 03:20:22;;;;;;;;;;;;;;;23.15;63.59;96761.52;626987;226;63005;-60
2022/04/11 03:22:50;;;;;;;;;;;;;;;23.13;63.82;96759.12;627043;226;66063;-59
2022/04/11 03:25:18;;;;;;;;;;;;;;;23.14;63.38;96767.98;627008;226;66150;-60
2022/04/11 03:27:46;;;;;;;;;;;;;;;23.14;63.80;96776.02;627017;226;64083;-60
2022/04/11 03:30:14;;;;;;;;;;;;;;;23.12;64.84;96776.30;627002;226;63931;-60
2022/04/11 03:32:42;;;;;;;;;;;;;;;23.11;65.48;96782.76;626996;226;63971;-60
2022/04/11 03:35:11;;;;;;;;;;;;;;;23.11;66.00;96784.62;627047;225;46550;-60
2022/04/11 03:37:39;;;;;;;;;;;;;;;23.10;65.19;96791.87;627037;226;65620;-60
2022/04/11 03:40:12;;;;;;;;;;;;;;;23.11;66.04;96798.84;625988;225;46541;-60
2022/04/11 03:42:40;;;;;;;;;;;;;;;23.10;63.51;96789.19;627015;226;64808;-60
2022/04/11 03:45:11;;;;;;;;;;;;;;;23.10;65.73;96804.48;627030;226;64804;-60
2022/04/11 03:47:40;;;;;;;;;;;;;;;23.08;65.86;96810.14;626980;226;64041;-60
2022/04/11 03:50:08;;;;;;;;;;;;;;;23.08;64.71;96806.64;627078;226;63147;-60
2022/04/11 03:52:37;;;;;;;;;;;;;;;23.09;64.70;96817.09;627002;225;49235;-59
2022/04/11 03:55:06;;;;;;;;;;;;;;;23.07;64.41;96821.93;627047;225;41708;-60
2022/04/11 03:57:34;;;;;;;;;;;;;;;23.07;64.15;96829.97;626971;226;65183;-60
2022/04/11 04:00:02;;;;;;;;;;;;;;;23.07;63.41;96829.18;627041;226;62410;-60
2022/04/11 04:02:31;;;;;;;;;;;;;;;23.06;64.92;96833.75;627041;225;47277;-60
2022/04/11 04:04:59;;;;;;;;;;;;;;;23.03;65.19;96834.33;627036;226;64072;-59
2022/04/11 04:07:27;;;;;;;;;;;;;;;23.03;65.89;96840.48;626989;226;65246;-60
2022/04/11 04:09:55;;;;;;;;;;;;;;;23.03;65.65;96837.80;627020;226;64039;-60
2022/04/11 04:12:23;;;;;;;;;;;;;;;23.05;66.21;96842.86;627015;226;66313;-60
2022/04/11 04:14:52;;;;;;;;;;;;;;;23.03;66.39;96845.84;626918;225;43969;-60
2022/04/11 04:17:20;;;;;;;;;;;;;;;23.01;65.61;96848.00;626769;226;63810;-60
2022/04/11 04:19:50;;;;;;;;;;;;;;;23.03;65.66;96856.56;626826;225;44204;-60
2022/04/11 04:22:19;;;;;;;;;;;;;;;23.03;64.15;96855.77;627008;225;42555;-60
2022/04/11 04:24:47;;;;;;;;;;;;;;;23.04;66.12;96852.00;626973;226;63200;-59
2022/04/11 04:27:15;;;;;;;;;;;;;;;23.03;65.91;96863.81;626839;226;65583;-60
2022/04/11 04:29:42;;;;;;;;;;;;;;;23.03;64.57;96866.49;626914;226;62842;-64
2022/04/11 04:32:10;;;;;;;;;;;;;;;23.03;64.68;96874.53;626904;226;63030;-64
2022/04/11 04:34:38;;;;;;;;;;;;;;;23.03;63.69;96879.89;626846;226;63731;-64
2022/04/11 04:37:06;;;;;;;;;;;;;;;23.03;64.56;96879.89;626879;226;63502;-71
2022/04/11 04:39:34;;;;;;;;;;;;;;;23.02;64.66;96883.64;626944;226;65244;-70
2022/04/11 04:42:01;;;;;;;;;;;;;;;23.01;64.71;96882.84;626996;226;62874;-71
2022/04/11 04:44:29;;;;;;;;;;;;;;;23.00;63.73;96883.94;626767;226;65972;-71
2022/04/11 04:46:58;;;;;;;;;;;;;;;23.03;64.64;96896.77;626542;225;42313;-71
2022/04/11 04:49:31;;;;;;;;;;;;;;;23.02;63.58;96887.11;626872;225;46731;-71
2022/04/11 04:51:59;;;;;;;;;;;;;;;23.02;64.05;96903.19;627094;226;63275;-71
2022/04/11 04:54:27;;;;;;;;;;;;;;;23.05;64.47;96901.82;627075;226;65971;-71
2022/04/11 04:56:56;;;;;;;;;;;;;;;23.04;64.72;96906.39;626995;226;63604;-71
2022/04/11 04:59:25;;;;;;;;;;;;;;;23.04;64.52;96910.95;627050;225;42707;-72
2022/04/11 05:01:53;;;;;;;;;;;;;;;23.05;62.25;96915.22;626973;226;65876;-72
2022/04/11 05:04:21;;;;;;;;;;;;;;;23.07;64.12;96909.59;626964;226;62912;-71
2022/04/11 05:06:50;;;;;;;;;;;;;;;23.08;63.07;96914.68;627053;226;65003;-72
2022/04/11 05:09:17;;;;;;;;;;;;;;;23.08;63.41;96920.03;626950;226;65173;-72
2022/04/11 05:11:47;;;;;;;;;;;;;;;23.07;65.09;96921.11;627018;226;66001;-71
2022/04/11 05:14:14;;;;;;;;;;;;;;;23.09;64.01;96918.15;626938;226;62894;-71
2022/04/11 05:16:43;;;;;;;;;;;;;;;23.09;63.65;96915.47;626895;226;65658;-72
2022/04/11 05:19:12;;;;;;;;;;;;;;;23.10;63.89;96925.89;626897;224;42768;-71
2022/04/11 05:21:40;;;;;;;;;;;;;;;23.13;63.03;96927.20;626536;226;66203;-71
2022/04/11 05:24:07;;;;;;;;;;;;;;;23.12;63.09;96928.30;627036;226;65532;-71
2022/04/11 05:26:36;;;;;;;;;;;;;;;23.14;63.98;96928.81;626557;226;66062;-72
2022/04/11 05:29:05;;;;;;;;;;;;;;;23.14;62.91;96928.81;626347;226;62533;-71
2022/04/11 05:31:32;;;;;;;;;;;;;;;23.15;64.99;96931.19;627081;226;65459;-71
2022/04/11 05:34:01;;;;;;;;;;;;;;;23.14;64.09;96940.33;627019;226;65529;-72
2022/04/11 05:36:29;;;;;;;;;;;;;;;23.15;62.99;96941.91;627016;226;65744;-72
2022/04/11 05:38:58;;;;;;;;;;;;;;;23.16;64.74;96938.17;627008;226;62968;-71
2022/04/11 05:41:26;;;;;;;;;;;;;;;23.17;64.38;96937.07;625469;226;66049;-71
2022/04/11 05:43:54;;;;;;;;;;;;;;;23.17;63.47;96936.28;624745;227;66020;-72
2022/04/11 05:46:23;;;;;;;;;;;;;;;23.18;63.49;96937.86;624764;225;42183;-71
2022/04/11 05:48:53;;;;;;;;;;;;;;;23.19;63.12;96934.09;621960;227;45269;-72
2022/04/11 05:51:20;;;;;;;;;;;;;;;23.19;63.04;96942.95;624714;227;65550;-72
2022/04/11 05:53:48;;;;;;;;;;;;;;;23.20;64.30;96936.49;624655;227;65692;-72
2022/04/11 05:56:15;;;;;;;;;;;;;;;23.20;62.08;96938.38;624663;227;63614;-75
2022/04/11 05:58:43;;;;;;;;;;;;;;;23.22;61.92;96942.38;624774;227;62634;-73
2022/04/11 06:01:11;;;;;;;;;;;;;;;23.22;64.13;96944.27;624698;227;65827;-67
2022/04/11 06:03:39;;;;;;;;;;;;;;;23.21;65.18;96948.02;624053;227;65292;-70
2022/04/11 06:06:06;;;;;;;;;;;;;;;23.19;64.26;96945.63;624441;227;63235;-72
2022/04/11 06:08:35;;;;;;;;;;;;;;;23.19;64.05;96945.63;624707;227;65954;-72
2022/04/11 06:11:03;;;;;;;;;;;;;;;23.17;62.50;96942.44;624521;227;62360;-71
2022/04/11 06:13:31;;;;;;;;;;;;;;;23.17;62.35;96942.44;624458;227;65654;-72
2022/04/11 06:16:01;;;;;;;;;;;;;;;23.19;63.23;96944.81;624602;227;65477;-71
2022/04/11 06:18:28;;;;;;;;;;;;;;;23.20;64.05;96941.86;624598;226;63003;-71
2022/04/11 06:20:56;;;;;;;;;;;;;;;23.20;63.21;96946.42;624708;227;65714;-71
2022/04/11 06:23:23;;;;;;;;;;;;;;;23.20;63.52;96947.22;624637;227;63542;-71
2022/04/11 06:25:51;;;;;;;;;;;;;;;23.21;62.92;96954.16;624638;227;62938;-71
2022/04/11 06:28:18;;;;;;;;;;;;;;;23.23;62.83;96951.21;624718;227;65044;-71
2022/04/11 06:30:46;;;;;;;;;;;;;;;23.23;63.27;96951.21;624704;227;65384;-71
2022/04/11 06:33:14;;;;;;;;;;;;;;;23.24;62.90;96950.94;624625;227;63071;-71
2022/04/11 06:35:43;;;;;;;;;;;;;;;23.25;63.37;96960.56;624758;226;43543;-72
2022/04/11 06:38:11;;;;;;;;;;;;;;;23.25;63.34;96952.52;624755;227;65129;-72
2022/04/11 06:40:38;;;;;;;;;;;;;;;23.28;63.66;96958.41;625279;226;62863;-72
2022/04/11 06:43:06;;;;;;;;;;;;;;;23.29;63.46;96968.03;626976;226;65030;-72
2022/04/11 06:45:38;;;;;;;;;;;;;;;23.29;62.94;96970.72;626855;225;42954;-71
2022/04/11 06:48:06;;;;;;;;;;;;;;;23.30;63.93;96966.94;626956;226;65943;-72
2022/04/11 06:50:33;;;;;;;;;;;;;;;23.30;63.28;96970.44;627011;226;64996;-72
2022/04/11 06:53:01;;;;;;;;;;;;;;;23.31;63.63;96974.70;625902;226;65120;-71
2022/04/11 06:55:28;;;;;;;;;;;;;;;23.32;63.62;96976.30;623796;226;65479;-72
2022/04/11 06:57:56;;;;;;;;;;;;;;;23.32;63.73;96981.66;620798;226;64726;-71
2022/04/11 07:00:23;;;;;;;;;;;;;;;23.34;63.98;96989.42;626428;226;65310;-71
2022/04/11 07:02:51;;;;;;;;;;;;;;;23.34;64.32;96986.75;626918;226;65358;-70
2022/04/11 07:05:18;;;;;;;;;;;;;;;23.34;63.86;96992.91;626960;226;65656;-71
2022/04/11 07:07:46;;;;;;;;;;;;;;;23.35;63.73;96991.80;626895;226;65078;-70
2022/04/11 07:10:13;;;;;;;;;;;;;;;23.36;62.85;96997.99;626938;226;65406;-71
2022/04/11 07:12:41;;;;;;;;;;;;;;;23.37;63.67;97010.30;626969;226;66170;-71
2022/04/11 07:15:09;;;;;;;;;;;;;;;23.37;64.33;97021.83;626935;226;65332;-71
2022/04/11 07:17:37;;;;;;;;;;;;;;;23.37;63.77;97011.09;626985;226;65690;-72
2022/04/11 07:20:05;;;;;;;;;;;;;;;23.38;63.09;97017.25;626933;226;64909;-71
2022/04/11 07:22:32;;;;;;;;;;;;;;;23.39;63.91;97018.87;626923;226;65308;-70
2022/04/11 07:25:01;;;;;;;;;;;;;;;23.39;64.16;97026.91;626893;226;64997;-71
2022/04/11 07:27:28;;;;;;;;;;;;;;;23.39;64.17;97033.07;626969;226;62973;-70
2022/04/11 07:29:56;;;;;;;;;;;;;;;23.40;63.37;97031.18;626944;226;64049;-70
2022/04/11 07:32:23;;;;;;;;;;;;;;;23.42;62.56;97034.38;626962;226;63276;-65
2022/04/11 07:34:51;;;;;;;;;;;;;;;23.43;62.11;97044.81;626915;226;63195;-71
2022/04/11 07:37:19;;;;;;;;;;;;;;;23.45;63.18;97041.85;626745;226;65444;-72
2022/04/11 07:39:46;;;;;;;;;;;;;;;23.46;62.19;97051.48;626947;226;65394;-72
2022/04/11 07:42:14;;;;;;;;;;;;;;;23.47;61.46;97053.89;624712;226;65156;-68
2022/04/11 07:44:41;;;;;;;;;;;;;;;23.49;61.73;97050.94;624639;227;65090;-71
2022/04/11 07:47:09;;;;;;;;;;;;;;;23.49;61.03;97059.78;624645;227;64915;-70
2022/04/11 07:49:36;;;;;;;;;;;;;;;23.52;60.89;97061.09;624718;227;65121;-72
2022/04/11 07:52:04;;;;;;;;;;;;;;;23.54;60.53;97058.11;624680;227;66351;-72
2022/04/11 07:54:31;;;;;;;;;;;;;;;23.55;61.23;97055.16;624736;227;65233;-71
2022/04/11 07:56:59;;;;;;;;;;;;;;;23.54;59.64;97063.47;624606;227;64748;-71
2022/04/11 07:59:26;;;;;;;;;;;;;;;23.53;63.05;97054.63;624664;227;65112;-70
2022/04/11 08:01:54;;;;;;;;;;;;;;;23.53;62.50;97068.05;624670;227;65230;-73
2022/04/11 08:04:21;;;;;;;;;;;;;;;23.52;62.00;97066.45;624613;227;64744;-70
2022/04/11 08:06:49;;;;;;;;;;;;;;;23.54;61.88;97068.84;624759;227;63005;-71
2022/04/11 08:09:16;;;;;;;;;;;;;;;23.54;60.84;97069.63;624656;227;62787;-57
2022/04/11 08:11:44;;;;;;;;;;;;;;;23.56;58.76;97067.47;624675;227;62590;-57
2022/04/11 08:14:11;;;;;;;;;;;;;;;23.59;59.46;97066.10;624676;227;65298;-55
2022/04/11 08:16:39;;;;;;;;;;;;;;;23.60;59.36;97071.20;624724;227;65501;-70
2022/04/11 08:19:06;;;;;;;;;;;;;;;23.62;58.63;97069.00;624631;227;65416;-70
2022/04/11 08:21:34;;;;;;;;;;;;;;;23.66;59.14;97077.30;624765;227;61945;-66
2022/04/11 08:24:01;;;;;;;;;;;;;;;23.66;58.95;97078.09;624713;227;65647;-74
2022/04/11 08:26:29;;;;;;;;;;;;;;;23.65;57.42;97075.68;624678;227;65019;-73
2022/04/11 08:28:56;;;;;;;;;;;;;;;23.68;58.41;97080.47;624650;227;65140;-74
2022/04/11 08:31:24;;;;;;;;;;;;;;;23.69;58.83;97080.20;624686;226;65406;-74
2022/04/11 08:33:52;;;;;;;;;;;;;;;23.70;58.12;97079.09;624669;227;64077;-69
2022/04/11 08:36:20;;;;;;;;;;;;;;;23.72;57.96;97088.80;624725;227;63124;-66
2022/04/11 08:38:48;;;;;;;;;;;;;;;23.75;57.33;97091.70;624690;227;65671;-67
2022/04/11 08:41:18;;;;;;;;;;;;;;;23.79;57.24;97097.28;625888;226;65187;-69
2022/04/11 08:43:45;;;;;;;;;;;;;;;23.80;57.60;97093.53;626928;226;63317;-72
2022/04/11 08:46:14;;;;;;;;;;;;;;;23.81;57.78;97095.91;627062;226;63504;-73
2022/04/11 08:48:43;;;;;;;;;;;;;;;23.82;57.66;97092.16;626916;226;65795;-63
2022/04/11 08:51:10;;;;;;;;;;;;;;;23.84;57.92;97100.70;626972;226;65092;-63
2022/04/11 08:53:38;;;;;;;;;;;;;;;23.85;57.11;97101.52;626998;226;66445;-66
2022/04/11 08:56:05;;;;;;;;;;;;;;;23.89;56.71;97099.84;626883;226;65185;-66
2022/04/11 08:58:33;;;;;;;;;;;;;;;23.91;57.79;97100.36;626897;226;65263;-64
2022/04/11 09:01:01;;;;;;;;;;;;;;;23.88;57.36;97101.73;626789;226;67025;-70
2022/04/11 09:03:29;;;;;;;;;;;;;;;23.92;55.90;97100.06;626759;226;66705;-71
2022/04/11 09:06:06;;;;;;;;;;;;;;;23.94;57.06;97105.16;626836;226;63014;-72
2022/04/11 09:08:44;;;;;;;;;;;;;;;23.94;56.50;97099.78;626725;226;67163;-74
2022/04/11 09:11:12;;;;;;;;;;;;;;;23.97;58.21;97103.78;623042;226;66990;-73
2022/04/11 09:13:48;;;;;;;;;;;;;;;23.97;57.46;97093.84;626905;226;63853;-73
2022/04/11 09:16:16;;;;;;;;;;;;;;;23.98;57.21;97094.63;626642;225;67218;-68
2022/04/11 09:18:52;;;;;;;;;;;;;;;23.98;57.68;97095.45;626819;226;67748;-68
2022/04/11 09:21:17;;;;;;;;;;;;;;;24.00;57.66;97093.26;626617;226;65208;-69
2022/04/11 09:23:46;;;;;;;;;;;;;;;24.03;56.82;97091.88;626783;226;67186;-70
2022/04/11 09:26:19;;;;;;;;;;;;;;;24.03;57.25;97095.36;626880;226;66753;-68
2022/04/11 09:29:00;;;;;;;;;;;;;;;24.06;56.62;97096.67;626848;225;65588;-63
2022/04/11 09:31:28;;;;;;;;;;;;;;;24.07;57.25;97100.97;626689;225;67154;-64
2022/04/11 09:33:55;;;;;;;;;;;;;;;24.07;57.87;97101.77;626827;226;67184;-67
2022/04/11 09:36:23;;;;;;;;;;;;;;;24.09;57.42;97102.28;626835;226;65290;-66
2022/04/11 09:38:58;;;;;;;;;;;;;;;24.10;56.10;97111.13;626738;226;67203;-71
2022/04/11 09:41:29;;;;;;;;;;;;;;;24.10;56.47;97114.61;626798;226;68155;-66
2022/04/11 09:43:57;;;;;;;;;;;;;;;24.07;54.84;97109.81;626806;226;65652;-63
2022/04/11 09:46:25;;;;;;;;;;;;;;;24.08;55.03;97105.24;626811;226;67010;-65
2022/04/11 09:48:53;;;;;;;;;;;;;;;24.08;57.19;97108.72;626842;226;64586;-69
2022/04/11 09:51:21;;;;;;;;;;;;;;;24.09;57.29;97106.83;626755;226;66372;-58
2022/04/11 09:53:48;;;;;;;;;;;;;;;24.09;56.81;97107.66;626839;226;66860;-68
2022/04/11 09:56:17;;;;;;;;;;;;;;;24.09;55.41;97107.66;626853;226;64913;-68
2022/04/11 09:58:44;;;;;;;;;;;;;;;24.11;55.78;97107.34;626680;226;63242;-74
2022/04/11 10:01:12;;;;;;;;;;;;;;;24.12;56.08;97107.07;626819;226;65120;-66
2022/04/11 10:03:41;;;;;;;;;;;;;;;24.14;56.34;97106.77;626794;226;64818;-66
2022/04/11 10:06:10;;;;;;;;;;;;;;;24.17;56.43;97102.70;626851;226;65421;-66
2022/04/11 10:08:37;;;;;;;;;;;;;;;24.19;56.07;97104.02;626783;225;64902;-65
2022/04/11 10:11:05;;;;;;;;;;;;;;;24.22;56.17;97108.02;626789;226;67904;-65
2022/04/11 10:13:34;;;;;;;;;;;;;;;24.23;56.83;97106.94;626792;226;65357;-65
2022/04/11 10:16:02;;;;;;;;;;;;;;;24.24;56.34;97105.84;626876;226;67166;-66
2022/04/11 10:18:30;;;;;;;;;;;;;;;24.24;56.58;97106.63;626821;226;67228;-66
2022/04/11 10:20:58;;;;;;;;;;;;;;;24.27;56.76;97107.95;626834;226;65240;-65
2022/04/11 10:23:46;;;;;;;;;;;;;;;24.27;57.19;97106.05;626733;226;67238;-67
2022/04/11 10:26:14;;;;;;;;;;;;;;;24.31;57.89;97114.34;626843;226;67877;-72
2022/04/11 10:28:46;;;;;;;;;;;;;;;24.31;57.18;97109.77;626660;226;62984;-71
2022/04/11 10:31:14;;;;;;;;;;;;;;;24.33;58.85;97106.78;626814;226;67288;-70
2022/04/11 10:33:43;;;;;;;;;;;;;;;24.32;57.96;97107.88;626763;226;66670;-69
2022/04/11 10:36:28;;;;;;;;;;;;;;;24.33;57.66;97117.52;626873;226;65278;-76
2022/04/11 10:39:14;;;;;;;;;;;;;;;24.34;57.40;97116.45;626853;226;64834;-73
2022/04/11 10:42:03;;;;;;;;;;;;;;;24.34;58.69;97111.87;626772;226;66611;-71
2022/04/11 10:44:40;;;;;;;;;;;;;;;24.37;58.43;97108.60;626874;226;47834;-70
2022/04/11 10:47:20;;;;;;;;;;;;;;;24.35;58.53;97096.55;626805;226;64975;-70
2022/04/11 10:49:58;;;;;;;;;;;;;;;24.37;58.45;97089.01;626767;226;65300;-70
2022/04/11 10:52:38;;;;;;;;;;;;;;;24.37;58.84;97097.06;626566;226;65487;-71
2022/04/11 10:55:09;;;;;;;;;;;;;;;24.38;58.65;97098.66;626808;226;67065;-66
2022/04/11 10:57:38;;;;;;;;;;;;;;;24.41;59.05;97094.59;626852;226;65066;-67
2022/04/11 11:00:09;;;;;;;;;;;;;;;24.41;59.69;97089.21;626838;226;63348;-67
2022/04/11 11:02:52;;;;;;;;;;;;;;;24.42;59.36;97098.86;626752;226;67222;-66
2022/04/11 11:05:30;;;;;;;;;;;;;;;24.42;59.29;97090.80;626594;226;67034;-66
2022/04/11 11:08:12;;;;;;;;;;;;;;;24.43;58.94;97095.89;626786;226;65176;-67
2022/04/11 11:10:41;;;;;;;;;;;;;;;24.43;58.67;97093.20;626624;226;64783;-67
2022/04/11 11:13:27;;;;;;;;;;;;;;;24.43;58.76;97095.10;626755;226;67427;-66
2022/04/11 11:15:59;;;;;;;;;;;;;;;24.47;59.26;97094.27;626815;226;65643;-67
2022/04/11 11:18:27;;;;;;;;;;;;;;;24.47;58.55;97088.89;626708;226;67342;-71
2022/04/11 11:20:56;;;;;;;;;;;;;;;24.44;56.94;97091.34;626797;226;66993;-64
2022/04/11 11:23:30;;;;;;;;;;;;;;;24.47;57.88;97091.58;626749;226;65305;-64
2022/04/11 11:25:56;;;;;;;;;;;;;;;24.49;59.68;97083.22;626710;225;67139;-71
2022/04/11 11:28:25;;;;;;;;;;;;;;;24.49;57.97;97078.63;626842;226;67021;-73
2022/04/11 11:30:53;;;;;;;;;;;;;;;24.48;58.62;97074.36;626749;225;63135;-68
2022/04/11 11:33:20;;;;;;;;;;;;;;;24.52;58.71;97067.30;626780;226;67278;-68
2022/04/11 11:35:52;;;;;;;;;;;;;;;24.55;59.21;97072.11;626816;226;67073;-68
2022/04/11 11:38:23;;;;;;;;;;;;;;;24.53;58.90;97066.23;626700;226;65246;-70
2022/04/11 11:40:55;;;;;;;;;;;;;;;24.56;59.55;97064.84;626758;226;67220;-69
2022/04/11 11:43:23;;;;;;;;;;;;;;;24.57;59.24;97063.75;626814;226;67270;-70
2022/04/11 11:45:51;;;;;;;;;;;;;;;24.57;60.30;97058.37;626764;226;65488;-69
2022/04/11 11:48:22;;;;;;;;;;;;;;;24.57;59.42;97053.79;626817;226;67153;-69
2022/04/11 11:50:50;;;;;;;;;;;;;;;24.60;59.90;97052.41;626771;226;66932;-63
2022/04/11 11:53:18;;;;;;;;;;;;;;;24.60;59.31;97057.78;626761;226;65075;-63
2022/04/11 11:55:56;;;;;;;;;;;;;;;24.57;58.85;97048.42;626841;226;65669;-70
2022/04/11 11:58:25;;;;;;;;;;;;;;;24.55;59.07;97044.42;626893;226;64366;-69
2022/04/11 12:00:52;;;;;;;;;;;;;;;24.56;56.64;97052.20;626549;225;63002;-68
2022/04/11 12:06:05;;;;;;;;;;;;;;;24.52;59.59;97043.12;626820;226;66938;-68
2022/04/11 12:08:33;;;;;;;;;;;;;;;24.53;59.91;97043.94;626791;226;65133;-68
2022/04/11 12:11:01;;;;;;;;;;;;;;;24.54;60.11;97037.47;626879;226;64613;-67
2022/04/11 12:13:30;;;;;;;;;;;;;;;24.54;59.74;97026.72;626646;226;66876;-65
2022/04/11 12:16:07;;;;;;;;;;;;;;;24.51;57.63;97030.79;626586;226;63222;-68
2022/04/11 12:18:52;;;;;;;;;;;;;;;24.55;56.24;97034.50;626608;226;66903;-69
2022/04/11 12:21:22;;;;;;;;;;;;;;;24.58;56.61;97044.66;625735;225;67117;-69
2022/04/11 12:23:50;;;;;;;;;;;;;;;24.59;57.15;97054.30;626283;225;63118;-70
2022/04/11 12:26:30;;;;;;;;;;;;;;;24.62;58.49;97070.94;626739;226;66880;-70
2022/04/11 12:28:59;;;;;;;;;;;;;;;24.63;58.74;97072.52;626773;226;64752;-68
2022/04/11 12:31:27;;;;;;;;;;;;;;;24.62;59.64;97055.61;626612;226;63044;-69
2022/04/11 12:33:54;;;;;;;;;;;;;;;24.63;59.82;97069.83;626788;226;65145;-67
2022/04/11 12:36:24;;;;;;;;;;;;;;;24.61;58.30;97072.01;626779;226;64883;-66
2022/04/11 12:38:56;;;;;;;;;;;;;;;24.59;60.88;97056.20;626722;226;65315;-63
2022/04/11 12:41:24;;;;;;;;;;;;;;;24.56;60.60;97044.14;626782;226;67244;-66
2022/04/11 12:44:07;;;;;;;;;;;;;;;24.56;60.61;97051.41;626751;226;67653;-65
2022/04/11 12:46:35;;;;;;;;;;;;;;;24.56;59.46;97054.09;626789;226;65275;-63
2022/04/11 12:49:04;;;;;;;;;;;;;;;24.57;59.16;97045.73;626792;226;64410;-71
2022/04/11 12:51:32;;;;;;;;;;;;;;;24.60;58.50;97036.28;626692;226;66898;-71
2022/04/11 12:54:04;;;;;;;;;;;;;;;24.60;58.44;97033.60;626799;226;65344;-68
2022/04/11 12:56:39;;;;;;;;;;;;;;;24.61;57.98;97037.08;626696;226;67462;-68
2022/04/11 12:59:07;;;;;;;;;;;;;;;24.61;58.70;97037.08;626848;226;67359;-68